Time;durP1;ratioP1;P1;durP2;ratioP2;P2;SDS_P1;SDS_P2;PMS_P1;PMS_P2;Temp;Humidity;BMP_temperature;BMP_pressure;BME280_temperature;BME280_humidity;BME280_pressure;Samples;Min_cycle;Max_cycle;Signal;HPM_P1;HPM_P2
2021/06/13 08:37:10;;;;;;;2.70;1.38;;;27.80;75.90;;;;;;4862462;29;20548;-72
2021/06/13 08:39:37;;;;;;;4.07;1.42;;;27.20;77.00;;;;;;4879192;29;20218;-72
2021/06/13 08:42:04;;;;;;;3.78;1.45;;;26.90;77.80;;;;;;4879434;29;20207;-72
2021/06/13 08:44:31;;;;;;;3.25;1.20;;;26.50;78.60;;;;;;4879152;29;20720;-72
2021/06/13 08:47:01;;;;;;;3.40;1.30;;;26.80;78.10;;;;;;4879450;29;20215;-73
2021/06/13 08:49:28;;;;;;;3.22;1.63;;;27.20;76.50;;;;;;4879055;29;20302;-73
2021/06/13 08:51:55;;;;;;;2.25;1.20;;;27.50;77.70;;;;;;4878320;29;20713;-73
2021/06/13 08:54:23;;;;;;;2.38;1.33;;;27.40;75.80;;;;;;4878975;29;20237;-72
2021/06/13 08:56:50;;;;;;;3.35;1.35;;;27.20;77.60;;;;;;4879057;29;20578;-73
2021/06/13 08:59:17;;;;;;;4.60;1.17;;;27.30;76.60;;;;;;4877621;29;20211;-73
2021/06/13 09:01:43;;;;;;;2.90;1.20;;;27.30;75.00;;;;;;4879632;29;20223;-72
2021/06/13 09:04:12;;;;;;;5.88;1.30;;;27.20;76.90;;;;;;4878397;29;20226;-74
2021/06/13 09:06:38;;;;;;;5.78;1.75;;;27.40;77.20;;;;;;4879371;29;20211;-73
2021/06/13 09:09:18;;;;;;;2.75;1.35;;;27.00;77.60;;;;;;4878928;29;20222;-73
2021/06/13 09:11:59;;;;;;;3.33;1.60;;;27.10;76.10;;;;;;4878779;29;20238;-73
2021/06/13 09:14:26;;;;;;;3.72;1.63;;;26.70;77.70;;;;;;4877125;29;20697;-73
2021/06/13 09:16:54;;;;;;;3.80;1.25;;;26.90;78.20;;;;;;4877924;29;20243;-73
2021/06/13 09:19:22;;;;;;;3.63;1.42;;;27.20;79.10;;;;;;4878545;29;20659;-74
2021/06/13 09:21:50;;;;;;;3.40;1.33;;;27.30;79.60;;;;;;4878575;29;20694;-73
2021/06/13 09:24:22;;;;;;;1.88;1.20;;;27.70;74.80;;;;;;4880191;29;20706;-73
2021/06/13 09:26:49;;;;;;;3.22;1.20;;;27.70;75.00;;;;;;4881776;29;20651;-73
2021/06/13 09:29:16;;;;;;;1.73;1.05;;;27.50;74.30;;;;;;4882040;29;20574;-73
2021/06/13 09:31:43;;;;;;;2.03;1.08;;;27.10;76.90;;;;;;4882540;29;20297;-72
2021/06/13 09:34:15;;;;;;;2.20;0.90;;;27.50;76.00;;;;;;4880868;29;20234;-73
2021/06/13 09:36:44;;;;;;;2.35;1.10;;;27.00;75.50;;;;;;4880429;29;20221;-73
2021/06/13 09:39:13;;;;;;;4.10;1.15;;;27.10;74.70;;;;;;4880830;29;20208;-73
2021/06/13 09:41:42;;;;;;;2.95;1.23;;;27.10;74.30;;;;;;4882729;29;20211;-73
2021/06/13 09:44:10;;;;;;;2.42;1.23;;;26.30;79.30;;;;;;4881782;29;20231;-73
2021/06/13 09:46:39;;;;;;;4.00;1.40;;;26.60;77.80;;;;;;4882393;29;20218;-74
2021/06/13 09:49:08;;;;;;;6.65;1.67;;;26.10;78.00;;;;;;4882242;29;20211;-74
2021/06/13 09:51:39;;;;;;;2.67;1.13;;;25.80;80.70;;;;;;4881732;29;20305;-73
2021/06/13 09:54:09;;;;;;;5.38;1.30;;;26.00;81.70;;;;;;4881764;29;20478;-74
2021/06/13 09:56:37;;;;;;;2.97;1.25;;;26.20;80.00;;;;;;4882382;29;20217;-73
2021/06/13 09:59:07;;;;;;;3.08;1.20;;;26.20;81.90;;;;;;4882040;29;20674;-73
2021/06/13 10:01:38;;;;;;;4.68;1.55;;;25.90;82.20;;;;;;4882009;29;20215;-74
2021/06/13 10:04:06;;;;;;;3.85;1.25;;;25.80;81.20;;;;;;4882140;29;20323;-74
2021/06/13 10:06:35;;;;;;;7.18;1.30;;;25.00;83.20;;;;;;4882331;29;20218;-75
2021/06/13 10:09:05;;;;;;;4.32;1.25;;;24.40;84.50;;;;;;4882061;29;20219;-74
2021/06/13 10:11:36;;;;;;;5.18;1.27;;;24.00;85.00;;;;;;4881912;29;20222;-74
2021/06/13 10:14:06;;;;;;;4.03;1.52;;;23.50;86.30;;;;;;4881601;29;20243;-74
2021/06/13 10:16:38;;;;;;;2.90;1.30;;;23.20;87.50;;;;;;4881172;29;20701;-74
2021/06/13 10:19:08;;;;;;;2.17;1.33;;;22.80;89.30;;;;;;4881468;29;20678;-73
2021/06/13 10:21:37;;;;;;;5.65;1.90;;;22.50;89.50;;;;;;4881236;29;20670;-73
2021/06/13 10:24:07;;;;;;;3.85;1.45;;;22.10;90.60;;;;;;4881380;29;20231;-73
2021/06/13 10:26:38;;;;;;;4.45;1.80;;;22.10;91.10;;;;;;4881625;29;20215;-72
2021/06/13 10:29:05;;;;;;;2.60;1.75;;;22.20;90.40;;;;;;4881667;29;20211;-72
2021/06/13 10:31:33;;;;;;;2.40;1.15;;;22.20;90.70;;;;;;4881308;29;20222;-72
2021/06/13 10:34:00;;;;;;;4.75;1.42;;;22.30;91.00;;;;;;4881113;29;20733;-72
2021/06/13 10:36:27;;;;;;;4.18;1.50;;;21.90;91.60;;;;;;4880461;29;20594;-72
2021/06/13 10:38:55;;;;;;;2.42;1.27;;;21.90;91.90;;;;;;4881267;29;20218;-72
2021/06/13 10:41:21;;;;;;;5.32;1.20;;;21.90;91.00;;;;;;4881669;29;20227;-72
2021/06/13 10:43:50;;;;;;;3.38;1.30;;;21.80;91.10;;;;;;4880566;29;20242;-72
2021/06/13 10:46:19;;;;;;;5.13;1.92;;;21.80;90.90;;;;;;4881071;29;20219;-73
2021/06/13 10:48:49;;;;;;;3.53;1.70;;;21.90;90.80;;;;;;4880795;29;20218;-73
2021/06/13 10:51:38;;;;;;;6.07;1.45;;;22.20;91.30;;;;;;4880939;29;20267;-73
2021/06/13 10:54:29;;;;;;;4.32;1.40;;;22.00;91.20;;;;;;4880342;29;20239;-72
2021/06/13 10:57:16;;;;;;;2.95;1.40;;;22.00;90.40;;;;;;4881003;29;20217;-72
2021/06/13 10:59:46;;;;;;;3.70;1.60;;;22.20;91.70;;;;;;4880779;29;20215;-73
2021/06/13 11:02:17;;;;;;;3.65;1.42;;;22.00;91.60;;;;;;4880411;29;20207;-72
2021/06/13 11:04:46;;;;;;;3.45;1.50;;;21.90;91.30;;;;;;4880975;29;20215;-72
2021/06/13 11:07:35;;;;;;;6.55;1.50;;;21.70;91.60;;;;;;4881093;29;20211;-72
2021/06/13 11:10:16;;;;;;;3.15;1.50;;;21.70;91.80;;;;;;4880811;29;20218;-72
2021/06/13 11:12:47;;;;;;;4.40;1.40;;;21.70;92.30;;;;;;4880601;29;20247;-72
2021/06/13 11:15:18;;;;;;;4.88;1.60;;;22.00;92.60;;;;;;4880733;29;20218;-71
2021/06/13 11:17:56;;;;;;;3.80;1.25;;;22.00;92.10;;;;;;4880666;29;20305;-71
2021/06/13 11:20:49;;;;;;;5.43;1.50;;;21.90;92.00;;;;;;4880734;29;20221;-72
2021/06/13 11:23:49;;;;;;;3.47;1.25;;;22.20;91.60;;;;;;4880596;29;20231;-73
2021/06/13 11:26:29;;;;;;;2.92;1.10;;;22.10;90.90;;;;;;4880675;29;20233;-72
2021/06/13 11:28:56;;;;;;;4.53;1.30;;;22.10;91.40;;;;;;4880639;29;20215;-72
2021/06/13 11:31:25;;;;;;;4.45;1.30;;;22.00;91.20;;;;;;4880370;29;20662;-72
2021/06/13 11:34:01;;;;;;;2.80;1.17;;;22.00;91.10;;;;;;4880246;29;20259;-72
2021/06/13 11:36:31;;;;;;;2.40;1.25;;;21.90;91.70;;;;;;4880443;29;20219;-72
2021/06/13 11:39:18;;;;;;;4.03;1.60;;;21.90;91.60;;;;;;4880377;29;20211;-72
2021/06/13 11:41:45;;;;;;;2.72;1.38;;;22.00;91.40;;;;;;4880745;29;20271;-72
2021/06/13 11:44:33;;;;;;;3.40;1.13;;;22.20;92.00;;;;;;4880263;29;20243;-72
2021/06/13 11:47:21;;;;;;;2.67;1.85;;;22.40;92.00;;;;;;4880259;29;20222;-72
2021/06/13 11:49:50;;;;;;;3.40;1.30;;;22.40;91.20;;;;;;4880080;29;20211;-72
2021/06/13 11:52:18;;;;;;;4.18;1.50;;;22.20;91.00;;;;;;4879966;29;20234;-72
2021/06/13 11:54:47;;;;;;;5.32;1.40;;;22.30;90.90;;;;;;4876341;29;20211;-73
2021/06/13 11:57:31;;;;;;;2.28;1.20;;;22.40;89.50;;;;;;4879538;29;20218;-72
2021/06/13 12:00:11;;;;;;;3.53;1.10;;;22.20;88.00;;;;;;4879775;29;20552;-71
2021/06/13 12:02:39;;;;;;;2.83;1.33;;;22.40;90.20;;;;;;4879677;29;20601;-72
2021/06/13 12:05:06;;;;;;;2.63;1.20;;;22.40;87.50;;;;;;4880150;29;20673;-72
2021/06/13 12:07:37;;;;;;;2.55;1.02;;;22.40;90.10;;;;;;4879691;29;20231;-72
2021/06/13 12:10:18;;;;;;;2.17;0.90;;;22.30;89.40;;;;;;4879801;29;20316;-73
2021/06/13 12:12:45;;;;;;;3.22;0.98;;;22.30;88.90;;;;;;4879611;29;20241;-73
2021/06/13 12:15:15;;;;;;;3.15;1.20;;;22.50;90.10;;;;;;4879950;29;20216;-73
2021/06/13 12:17:44;;;;;;;2.40;0.95;;;22.60;90.20;;;;;;4880165;29;20604;-73
2021/06/13 12:20:18;;;;;;;4.20;1.30;;;22.60;89.60;;;;;;4879796;29;20211;-73
2021/06/13 12:22:50;;;;;;;3.70;1.42;;;22.40;89.10;;;;;;4894140;29;20229;-73
2021/06/13 12:28:05;;;;;;;2.10;1.10;;;22.30;89.80;;;;;;4879859;29;20211;-72
2021/06/13 12:30:32;;;;;;;1.83;0.95;;;22.40;87.40;;;;;;4879587;29;20278;-73
2021/06/13 12:33:04;;;;;;;2.15;0.98;;;22.40;89.30;;;;;;4879184;29;20338;-73
2021/06/13 12:35:33;;;;;;;3.65;1.15;;;22.40;90.70;;;;;;4879128;29;20311;-71
2021/06/13 12:38:03;;;;;;;2.38;0.98;;;22.70;90.50;;;;;;4879541;29;20215;-72
2021/06/13 12:40:31;;;;;;;2.50;1.20;;;23.00;89.50;;;;;;4879299;29;20207;-72
2021/06/13 12:42:58;;;;;;;5.65;1.48;;;22.90;88.60;;;;;;4879213;29;20257;-71
2021/06/13 12:45:25;;;;;;;3.58;1.05;;;22.60;90.40;;;;;;4879314;29;20670;-72
2021/06/13 12:47:56;;;;;;;2.70;0.90;;;22.70;88.80;;;;;;4879225;29;20215;-72
2021/06/13 12:50:26;;;;;;;4.70;1.38;;;22.90;88.60;;;;;;4879115;29;20218;-72
2021/06/13 12:52:56;;;;;;;3.00;1.25;;;23.00;89.90;;;;;;4860589;29;20255;-72
2021/06/13 12:55:23;;;;;;;5.95;1.30;;;23.00;88.70;;;;;;4860998;29;20219;-72
2021/06/13 12:57:52;;;;;;;3.17;0.90;;;23.00;89.60;;;;;;4860101;29;20212;-72
2021/06/13 13:00:19;;;;;;;5.28;0.90;;;22.80;90.00;;;;;;4860831;29;20668;-72
2021/06/13 13:02:46;;;;;;;2.58;1.10;;;22.60;89.40;;;;;;4860122;29;20600;-72
2021/06/13 13:05:15;;;;;;;4.93;1.27;;;22.50;90.10;;;;;;4860780;29;20212;-73
2021/06/13 13:07:43;;;;;;;1.50;1.00;;;22.70;89.20;;;;;;4860222;29;20636;-72
2021/06/13 13:10:15;;;;;;;2.75;1.20;;;22.90;90.30;;;;;;4860203;29;20222;-72
2021/06/13 13:12:49;;;;;;;2.08;0.95;;;22.90;88.10;;;;;;4860369;29;20254;-72
2021/06/13 13:15:22;;;;;;;2.45;1.05;;;22.90;88.60;;;;;;4860235;29;20238;-71
2021/06/13 13:17:49;;;;;;;4.57;1.27;;;23.10;88.90;;;;;;4861080;29;20212;-72
2021/06/13 13:20:23;;;;;;;3.17;1.08;;;23.00;89.90;;;;;;4878873;29;20221;-72
2021/06/13 13:22:53;;;;;;;3.75;1.30;;;22.80;88.60;;;;;;4878865;29;20234;-72
2021/06/13 13:25:21;;;;;;;3.58;1.10;;;22.90;90.40;;;;;;4878968;29;20581;-72
2021/06/13 13:27:49;;;;;;;4.35;1.30;;;23.10;90.10;;;;;;4879691;29;20674;-73
2021/06/13 13:30:26;;;;;;;2.55;0.93;;;23.20;89.70;;;;;;4879383;29;20211;-72
2021/06/13 13:32:54;;;;;;;2.92;0.90;;;23.30;88.20;;;;;;4880060;29;20235;-73
2021/06/13 13:35:29;;;;;;;2.50;1.00;;;23.20;90.40;;;;;;4879598;29;20262;-72
2021/06/13 13:37:58;;;;;;;1.50;0.90;;;23.10;90.10;;;;;;4878889;29;20206;-72
2021/06/13 13:40:26;;;;;;;1.60;1.08;;;23.20;88.70;;;;;;4878699;29;20219;-72
2021/06/13 13:42:57;;;;;;;2.50;0.90;;;23.20;88.90;;;;;;4878842;29;20326;-72
2021/06/13 13:45:25;;;;;;;1.42;1.00;;;23.20;89.10;;;;;;4878545;29;20689;-72
2021/06/13 13:47:52;;;;;;;1.80;1.10;;;23.40;87.20;;;;;;4878569;29;20219;-73
2021/06/13 13:50:19;;;;;;;2.08;1.13;;;23.50;87.30;;;;;;4878660;29;20231;-72
2021/06/13 13:52:47;;;;;;;3.03;1.08;;;23.60;88.40;;;;;;4878229;29;20245;-72
2021/06/13 13:55:15;;;;;;;2.63;1.00;;;23.40;88.80;;;;;;4878513;29;20778;-73
2021/06/13 13:57:43;;;;;;;2.75;1.17;;;23.20;89.10;;;;;;4878746;29;20335;-71
2021/06/13 14:00:11;;;;;;;2.63;1.00;;;23.20;90.20;;;;;;4878869;29;20215;-72
2021/06/13 14:02:38;;;;;;;2.00;1.17;;;23.30;90.20;;;;;;4878429;29;20234;-72
2021/06/13 14:05:06;;;;;;;2.15;0.98;;;23.70;90.30;;;;;;4878457;29;20219;-72
2021/06/13 14:07:34;;;;;;;2.67;0.98;;;23.60;88.50;;;;;;4877934;29;20219;-72
2021/06/13 14:10:01;;;;;;;1.35;0.90;;;23.70;88.90;;;;;;4880295;29;20215;-72
2021/06/13 14:12:29;;;;;;;3.72;1.13;;;23.80;86.50;;;;;;4881764;29;20211;-72
2021/06/13 14:14:56;;;;;;;2.03;1.15;;;23.70;86.80;;;;;;4880866;29;20234;-72
2021/06/13 14:17:22;;;;;;;3.42;1.30;;;23.80;89.80;;;;;;4881738;29;20215;-72
2021/06/13 14:19:49;;;;;;;4.60;1.13;;;23.80;87.00;;;;;;4880868;29;20222;-72
2021/06/13 14:22:16;;;;;;;3.80;0.98;;;23.80;84.80;;;;;;4881836;29;20230;-72
2021/06/13 14:24:43;;;;;;;5.38;2.25;;;23.80;84.10;;;;;;4881355;29;20237;-72
2021/06/13 14:27:09;;;;;;;5.28;1.00;;;24.00;86.20;;;;;;4881118;29;20222;-72
2021/06/13 14:29:39;;;;;;;1.67;1.00;;;24.00;87.60;;;;;;4881559;29;20215;-72
2021/06/13 14:32:07;;;;;;;3.50;1.00;;;24.00;84.10;;;;;;4881050;29;20215;-72
2021/06/13 14:34:34;;;;;;;2.47;1.00;;;23.70;86.10;;;;;;4880571;29;20247;-73
2021/06/13 14:37:00;;;;;;;2.50;1.10;;;23.80;86.40;;;;;;4880942;29;20683;-72
2021/06/13 14:39:27;;;;;;;2.70;0.82;;;23.70;86.60;;;;;;4880974;29;20222;-73
2021/06/13 14:41:54;;;;;;;3.17;0.98;;;23.70;83.00;;;;;;4880597;29;20222;-72
2021/06/13 14:44:21;;;;;;;3.05;1.23;;;23.70;84.80;;;;;;4880775;29;20235;-72
2021/06/13 14:46:49;;;;;;;2.78;1.10;;;23.80;84.50;;;;;;4880310;29;20630;-72
2021/06/13 14:49:16;;;;;;;1.30;0.95;;;24.00;85.20;;;;;;4880075;29;20302;-72
2021/06/13 14:51:42;;;;;;;2.50;1.10;;;24.00;86.60;;;;;;4880766;29;20232;-73
2021/06/13 14:54:09;;;;;;;2.97;0.90;;;23.80;84.70;;;;;;4880141;29;20272;-73
2021/06/13 14:56:36;;;;;;;2.10;1.15;;;23.70;86.10;;;;;;4880365;29;20211;-73
2021/06/13 14:59:03;;;;;;;1.77;0.93;;;23.70;86.90;;;;;;4880696;29;20222;-73
2021/06/13 15:01:30;;;;;;;2.78;0.98;;;23.50;86.50;;;;;;4892445;29;20217;-73
2021/06/13 15:03:59;;;;;;;3.38;0.95;;;23.60;87.10;;;;;;4899128;29;20241;-73
2021/06/13 15:06:26;;;;;;;3.83;0.85;;;23.80;86.00;;;;;;4899167;29;20249;-72
2021/06/13 15:08:54;;;;;;;1.73;1.05;;;23.80;86.00;;;;;;4886289;29;20343;-73
2021/06/13 15:11:20;;;;;;;2.03;1.00;;;23.90;84.70;;;;;;4880008;29;20215;-74
2021/06/13 15:13:47;;;;;;;3.25;0.90;;;23.70;82.70;;;;;;4880180;29;20254;-74
2021/06/13 15:16:14;;;;;;;3.78;1.23;;;23.80;81.40;;;;;;4880147;29;20215;-72
2021/06/13 15:18:41;;;;;;;2.30;1.10;;;24.00;83.70;;;;;;4880415;29;20218;-72
2021/06/13 15:21:10;;;;;;;1.88;0.90;;;24.00;83.30;;;;;;4879521;29;20215;-72
2021/06/13 15:23:37;;;;;;;1.30;0.80;;;24.00;84.10;;;;;;4880181;29;20231;-71
2021/06/13 15:26:03;;;;;;;5.10;1.13;;;24.10;83.30;;;;;;4880378;29;20215;-72
2021/06/13 15:28:31;;;;;;;2.40;1.10;;;24.20;84.70;;;;;;4879820;29;20586;-72
2021/06/13 15:30:58;;;;;;;2.85;1.00;;;24.20;85.00;;;;;;4879517;29;20215;-73
2021/06/13 15:33:25;;;;;;;3.40;0.95;;;24.10;82.60;;;;;;4879625;29;20230;-73
2021/06/13 15:35:53;;;;;;;2.42;1.10;;;23.90;83.70;;;;;;4879755;29;20222;-73
2021/06/13 15:38:21;;;;;;;3.42;1.02;;;23.80;84.50;;;;;;4879991;29;20686;-73
2021/06/13 15:40:48;;;;;;;5.45;1.33;;;23.70;85.20;;;;;;4880121;29;20247;-73
2021/06/13 15:43:16;;;;;;;3.70;1.17;;;23.80;84.60;;;;;;4879960;29;20766;-72
2021/06/13 15:45:43;;;;;;;3.90;1.45;;;23.70;84.30;;;;;;4880248;29;20222;-73
2021/06/13 15:48:11;;;;;;;4.03;1.10;;;23.50;85.20;;;;;;4879936;29;20215;-73
2021/06/13 15:50:38;;;;;;;1.35;0.90;;;23.70;85.60;;;;;;4880098;29;20207;-73
2021/06/13 15:53:05;;;;;;;2.90;1.38;;;23.80;86.30;;;;;;4879771;29;20231;-73
2021/06/13 15:55:34;;;;;;;2.63;1.27;;;23.90;84.60;;;;;;4879826;29;20254;-73
2021/06/13 15:58:02;;;;;;;3.67;1.38;;;24.00;84.50;;;;;;4879769;29;20361;-72
2021/06/13 16:00:29;;;;;;;3.25;1.23;;;24.20;84.70;;;;;;4879556;29;20211;-73
2021/06/13 16:02:56;;;;;;;3.47;0.85;;;24.20;84.60;;;;;;4879588;29;20279;-73
2021/06/13 16:05:23;;;;;;;3.10;1.20;;;24.10;83.10;;;;;;4879772;29;20215;-73
2021/06/13 16:07:50;;;;;;;2.88;0.98;;;23.90;82.70;;;;;;4879314;29;20283;-73
2021/06/13 16:10:19;;;;;;;2.55;1.00;;;23.90;82.60;;;;;;4879377;29;20219;-72
2021/06/13 16:12:47;;;;;;;2.22;1.20;;;24.00;83.70;;;;;;4879285;29;20231;-72
2021/06/13 16:15:19;;;;;;;2.03;0.93;;;23.90;82.60;;;;;;4879099;29;20239;-73
2021/06/13 16:17:46;;;;;;;1.88;1.20;;;24.00;83.70;;;;;;4879132;29;20243;-73
2021/06/13 16:20:14;;;;;;;4.00;1.10;;;24.10;83.90;;;;;;4879325;29;20214;-73
2021/06/13 16:22:41;;;;;;;4.20;1.25;;;24.00;84.10;;;;;;4879110;29;20242;-73
2021/06/13 16:25:09;;;;;;;3.33;1.17;;;24.00;83.80;;;;;;4878828;29;20217;-73
2021/06/13 16:27:36;;;;;;;3.03;1.67;;;24.00;83.70;;;;;;4879354;29;20207;-72
2021/06/13 16:30:06;;;;;;;3.20;1.45;;;24.00;85.00;;;;;;4878882;29;20210;-73
2021/06/13 16:32:33;;;;;;;2.28;1.20;;;24.00;84.50;;;;;;4878322;29;20207;-73
2021/06/13 16:35:00;;;;;;;2.83;1.30;;;24.00;84.50;;;;;;4878164;29;20261;-73
2021/06/13 16:37:27;;;;;;;2.38;1.40;;;24.20;84.30;;;;;;4878625;29;20226;-72
2021/06/13 16:39:54;;;;;;;2.53;1.13;;;24.30;83.70;;;;;;4878771;29;20309;-73
2021/06/13 16:42:21;;;;;;;3.47;1.10;;;24.40;83.80;;;;;;4878011;29;20215;-73
2021/06/13 16:44:48;;;;;;;1.75;1.10;;;24.20;84.30;;;;;;4877573;29;20215;-73
2021/06/13 16:47:16;;;;;;;2.13;1.20;;;24.00;85.20;;;;;;4876035;29;20210;-71
2021/06/13 16:49:43;;;;;;;2.00;1.20;;;23.80;85.40;;;;;;4877394;29;20211;-71
2021/06/13 16:52:11;;;;;;;3.13;1.50;;;23.90;85.60;;;;;;4877465;29;20928;-71
2021/06/13 16:54:37;;;;;;;3.50;1.58;;;23.90;85.30;;;;;;4877592;29;20239;-71
2021/06/13 16:57:06;;;;;;;4.35;1.67;;;23.70;86.10;;;;;;4877516;29;20207;-71
2021/06/13 16:59:34;;;;;;;2.72;1.27;;;23.60;86.30;;;;;;4878018;29;20250;-71
2021/06/13 17:02:01;;;;;;;2.40;1.17;;;23.70;87.70;;;;;;4877333;29;20242;-70
2021/06/13 17:04:29;;;;;;;2.80;1.40;;;23.80;86.70;;;;;;4877282;29;20235;-70
2021/06/13 17:06:56;;;;;;;2.13;1.35;;;24.00;85.00;;;;;;4876952;29;20619;-72
2021/06/13 17:09:23;;;;;;;5.53;2.22;;;24.20;85.80;;;;;;4877738;29;20217;-72
2021/06/13 17:11:50;;;;;;;2.60;1.42;;;24.20;85.20;;;;;;4877746;29;20206;-72
2021/06/13 17:14:16;;;;;;;4.90;1.75;;;24.40;85.20;;;;;;4877340;29;20617;-72
2021/06/13 17:16:43;;;;;;;3.85;1.25;;;24.30;85.10;;;;;;4876543;29;20578;-72
2021/06/13 17:19:10;;;;;;;2.72;1.30;;;24.30;86.20;;;;;;4877204;29;20270;-72
2021/06/13 17:21:39;;;;;;;4.78;1.40;;;24.30;86.20;;;;;;4877303;29;20215;-71
2021/06/13 17:24:08;;;;;;;2.15;1.10;;;24.30;86.60;;;;;;4877054;29;20230;-71
2021/06/13 17:26:35;;;;;;;2.10;1.13;;;24.20;85.40;;;;;;4877404;29;20237;-72
2021/06/13 17:29:03;;;;;;;3.00;1.40;;;24.20;84.90;;;;;;4877412;29;20211;-72
2021/06/13 17:31:29;;;;;;;3.25;1.40;;;24.20;85.40;;;;;;4877137;29;20223;-72
2021/06/13 17:33:59;;;;;;;3.58;1.42;;;24.20;86.00;;;;;;4876899;29;20238;-72
2021/06/13 17:36:51;;;;;;;2.65;1.20;;;24.20;86.20;;;;;;4876572;29;20234;-72
2021/06/13 17:39:18;;;;;;;2.72;1.30;;;24.40;85.60;;;;;;4877232;29;20218;-72
2021/06/13 17:41:48;;;;;;;1.73;1.05;;;24.50;86.20;;;;;;4877164;29;20242;-72
2021/06/13 17:44:16;;;;;;;2.42;1.20;;;24.30;85.80;;;;;;4877892;29;20325;-72
2021/06/13 17:46:45;;;;;;;2.97;1.30;;;24.50;86.10;;;;;;4880888;29;20551;-72
2021/06/13 17:49:12;;;;;;;2.60;1.40;;;24.30;85.70;;;;;;4880413;29;20675;-72
2021/06/13 17:51:39;;;;;;;6.55;1.48;;;24.20;86.80;;;;;;4880580;29;20211;-72
2021/06/13 17:54:07;;;;;;;3.33;1.40;;;24.10;85.90;;;;;;4880655;29;20245;-72
2021/06/13 17:56:34;;;;;;;2.65;0.95;;;23.90;84.40;;;;;;4880496;29;20693;-72
2021/06/13 17:59:01;;;;;;;2.28;1.20;;;23.80;85.40;;;;;;4880522;29;20215;-71
2021/06/13 18:01:28;;;;;;;3.13;1.35;;;23.70;84.40;;;;;;4880660;29;20217;-71
2021/06/13 18:03:55;;;;;;;3.03;1.10;;;23.70;84.30;;;;;;4880269;29;20227;-72
2021/06/13 18:06:22;;;;;;;3.42;1.00;;;23.70;84.70;;;;;;4880731;29;20211;-72
2021/06/13 18:08:49;;;;;;;4.53;1.48;;;23.70;84.90;;;;;;4880716;29;20217;-72
2021/06/13 18:11:18;;;;;;;3.20;1.30;;;23.60;84.70;;;;;;4880146;29;20215;-71
2021/06/13 18:13:46;;;;;;;4.20;1.50;;;23.50;85.10;;;;;;4879955;29;20235;-71
2021/06/13 18:16:13;;;;;;;4.35;1.38;;;23.50;85.20;;;;;;4879784;29;20718;-71
2021/06/13 18:18:42;;;;;;;4.57;1.27;;;23.70;84.60;;;;;;4879439;29;20294;-73
2021/06/13 18:21:09;;;;;;;3.13;1.20;;;23.60;84.80;;;;;;4880210;29;20313;-70
2021/06/13 18:23:36;;;;;;;2.20;1.20;;;23.60;85.30;;;;;;4879778;29;20231;-72
2021/06/13 18:26:04;;;;;;;2.10;1.30;;;23.50;84.90;;;;;;4880250;29;20218;-71
2021/06/13 18:28:33;;;;;;;1.33;0.90;;;23.40;85.90;;;;;;4881748;29;20297;-72
2021/06/13 18:31:00;;;;;;;2.55;1.35;;;23.40;84.70;;;;;;4881549;29;20216;-71
2021/06/13 18:33:27;;;;;;;3.90;1.40;;;23.30;87.20;;;;;;4881492;29;20234;-71
2021/06/13 18:35:54;;;;;;;3.65;1.45;;;23.20;88.30;;;;;;4880896;29;20239;-71
2021/06/13 18:38:21;;;;;;;2.60;1.58;;;23.20;87.20;;;;;;4880984;29;20298;-71
2021/06/13 18:40:48;;;;;;;2.60;1.30;;;23.20;88.60;;;;;;4881271;29;20263;-71
2021/06/13 18:43:17;;;;;;;1.50;1.10;;;23.10;88.50;;;;;;4881145;29;20234;-71
2021/06/13 18:45:46;;;;;;;2.30;1.20;;;23.10;87.70;;;;;;4881332;29;20215;-71
2021/06/13 18:48:14;;;;;;;3.40;1.05;;;23.00;88.50;;;;;;4881411;29;20222;-71
2021/06/13 18:50:41;;;;;;;1.65;0.88;;;23.10;88.60;;;;;;4881172;29;20215;-71
2021/06/13 18:53:08;;;;;;;2.35;1.35;;;23.00;86.80;;;;;;4881076;29;20317;-71
2021/06/13 18:55:35;;;;;;;1.77;1.00;;;23.00;88.20;;;;;;4880448;29;20238;-71
2021/06/13 18:58:02;;;;;;;2.10;1.27;;;22.90;88.20;;;;;;4881179;29;20211;-71
2021/06/13 19:00:29;;;;;;;2.13;1.15;;;22.70;87.40;;;;;;4881067;29;20222;-71
2021/06/13 19:02:58;;;;;;;1.27;0.77;;;22.70;89.40;;;;;;4881210;29;20231;-71
2021/06/13 19:05:25;;;;;;;3.53;1.33;;;22.90;90.50;;;;;;4881158;29;20266;-71
2021/06/13 19:07:51;;;;;;;4.28;1.33;;;22.90;90.50;;;;;;4881173;29;20690;-70
2021/06/13 19:10:18;;;;;;;4.18;1.30;;;22.90;89.80;;;;;;4881135;29;20215;-71
2021/06/13 19:12:45;;;;;;;3.05;1.23;;;22.90;90.20;;;;;;4881199;29;20233;-71
2021/06/13 19:15:13;;;;;;;3.88;1.20;;;22.90;90.60;;;;;;4880885;29;20246;-71
2021/06/13 19:17:40;;;;;;;2.78;1.20;;;22.90;90.80;;;;;;4880734;29;20222;-71
2021/06/13 19:20:09;;;;;;;2.33;1.02;;;22.80;91.30;;;;;;4881051;29;20219;-71
2021/06/13 19:22:36;;;;;;;3.78;1.27;;;22.70;92.30;;;;;;4880914;29;20211;-71
2021/06/13 19:25:04;;;;;;;2.13;1.05;;;22.60;92.20;;;;;;4880969;29;20222;-71
2021/06/13 19:27:31;;;;;;;2.63;1.00;;;22.50;92.60;;;;;;4880934;29;20219;-71
2021/06/13 19:29:58;;;;;;;3.40;1.40;;;22.50;92.50;;;;;;4880816;29;20254;-70
2021/06/13 19:32:25;;;;;;;4.40;1.23;;;22.40;92.90;;;;;;4880677;29;20211;-71
2021/06/13 19:34:52;;;;;;;2.30;1.13;;;22.30;93.30;;;;;;4880523;29;20217;-71
2021/06/13 19:37:21;;;;;;;2.13;1.20;;;22.20;93.20;;;;;;4881080;29;20219;-71
2021/06/13 19:39:48;;;;;;;1.90;1.20;;;22.00;93.70;;;;;;4880696;29;20651;-71
2021/06/13 19:42:15;;;;;;;3.72;1.20;;;21.90;94.50;;;;;;4880660;29;20567;-71
2021/06/13 19:44:42;;;;;;;2.85;1.15;;;21.90;94.90;;;;;;4880546;29;20591;-71
2021/06/13 19:47:08;;;;;;;2.15;1.00;;;21.90;95.00;;;;;;4880193;29;20567;-71
2021/06/13 19:49:35;;;;;;;3.17;1.05;;;21.90;94.90;;;;;;4880467;29;20666;-71
2021/06/13 19:52:02;;;;;;;2.72;1.30;;;21.70;95.10;;;;;;4880327;29;20215;-71
2021/06/13 19:54:31;;;;;;;1.70;1.40;;;21.50;95.30;;;;;;4880314;29;20231;-71
2021/06/13 19:56:58;;;;;;;1.92;1.05;;;21.40;95.30;;;;;;4880288;29;20238;-71
2021/06/13 19:59:25;;;;;;;1.67;1.13;;;21.30;95.90;;;;;;4880206;29;20213;-71
2021/06/13 20:01:52;;;;;;;5.10;1.40;;;21.20;96.20;;;;;;4880206;29;20217;-71
2021/06/13 20:04:19;;;;;;;2.70;1.20;;;21.20;97.00;;;;;;4880189;29;20227;-71
2021/06/13 20:06:46;;;;;;;2.42;1.20;;;21.00;97.10;;;;;;4879955;29;20662;-71
2021/06/13 20:09:12;;;;;;;2.80;1.42;;;20.90;96.70;;;;;;4880203;29;20574;-71
2021/06/13 20:11:41;;;;;;;1.90;1.23;;;20.70;97.00;;;;;;4880125;29;20215;-71
2021/06/13 20:14:07;;;;;;;2.42;1.40;;;20.60;97.50;;;;;;4879998;29;20230;-71
2021/06/13 20:16:34;;;;;;;3.58;1.10;;;20.50;97.90;;;;;;4879784;29;20333;-71
2021/06/13 20:19:01;;;;;;;2.60;1.20;;;20.50;98.00;;;;;;4879682;29;20211;-71
2021/06/13 20:21:28;;;;;;;2.75;1.30;;;20.40;97.80;;;;;;4880087;29;20303;-71
2021/06/13 20:23:55;;;;;;;2.33;1.08;;;20.30;98.10;;;;;;4879636;29;20235;-71
2021/06/13 20:26:22;;;;;;;2.20;1.27;;;20.20;98.40;;;;;;4879913;29;20222;-71
2021/06/13 20:28:50;;;;;;;5.32;1.30;;;20.10;98.80;;;;;;4879846;29;20219;-71
2021/06/13 20:31:17;;;;;;;1.65;1.10;;;20.00;99.10;;;;;;4879523;29;20682;-71
2021/06/13 20:33:45;;;;;;;1.67;1.20;;;19.90;99.70;;;;;;4879548;29;20263;-71
2021/06/13 20:36:12;;;;;;;2.10;1.40;;;19.80;99.90;;;;;;4879312;29;20243;-71
2021/06/13 20:38:39;;;;;;;5.33;1.83;;;19.80;99.90;;;;;;4879584;29;20211;-71
2021/06/13 20:41:07;;;;;;;2.47;1.23;;;19.70;99.90;;;;;;4879509;29;20207;-70
2021/06/13 20:43:34;;;;;;;1.90;1.30;;;19.60;99.90;;;;;;4879626;29;20275;-71
2021/06/13 20:46:02;;;;;;;1.90;1.30;;;19.40;99.90;;;;;;4879383;29;20804;-71
2021/06/13 20:48:30;;;;;;;3.87;1.40;;;19.30;99.90;;;;;;4879544;29;20238;-71
2021/06/13 20:50:57;;;;;;;2.60;1.47;;;19.20;99.90;;;;;;4879378;29;20677;-71
2021/06/13 20:53:25;;;;;;;3.53;1.30;;;19.30;99.90;;;;;;4879638;29;20235;-71
